sensor_id;sensor_type;location;lat;lon;timestamp;temperature;humidity
13898;DHT22;7019;50.766;4.474;2022-07-30T00:02:24;16.70;99.90
13898;DHT22;7019;50.766;4.474;2022-07-30T00:04:53;16.70;99.90
13898;DHT22;7019;50.766;4.474;2022-07-30T00:07:20;16.70;99.90
13898;DHT22;7019;50.766;4.474;2022-07-30T00:09:47;16.70;99.90
13898;DHT22;7019;50.766;4.474;2022-07-30T00:12:15;16.60;99.90
13898;DHT22;7019;50.766;4.474;2022-07-30T00:14:42;16.60;99.90
13898;DHT22;7019;50.766;4.474;2022-07-30T00:17:09;16.50;99.90
13898;DHT22;7019;50.766;4.474;2022-07-30T00:19:36;16.50;99.90
13898;DHT22;7019;50.766;4.474;2022-07-30T00:22:03;16.40;99.90
13898;DHT22;7019;50.766;4.474;2022-07-30T00:24:30;16.40;99.90
13898;DHT22;7019;50.766;4.474;2022-07-30T00:26:58;16.40;99.90
13898;DHT22;7019;50.766;4.474;2022-07-30T00:29:26;16.40;99.90
13898;DHT22;7019;50.766;4.474;2022-07-30T00:31:53;16.30;99.90
13898;DHT22;7019;50.766;4.474;2022-07-30T00:34:20;16.20;99.90
13898;DHT22;7019;50.766;4.474;2022-07-30T00:36:47;16.20;99.90
13898;DHT22;7019;50.766;4.474;2022-07-30T00:39:14;16.20;99.90
13898;DHT22;7019;50.766;4.474;2022-07-30T00:41:57;16.10;99.90
13898;DHT22;7019;50.766;4.474;2022-07-30T00:44:25;16.10;99.90
13898;DHT22;7019;50.766;4.474;2022-07-30T00:46:53;16.10;99.90
13898;DHT22;7019;50.766;4.474;2022-07-30T00:49:21;16.10;99.90
13898;DHT22;7019;50.766;4.474;2022-07-30T00:51:48;16.00;99.90
13898;DHT22;7019;50.766;4.474;2022-07-30T00:54:16;16.00;99.90
13898;DHT22;7019;50.766;4.474;2022-07-30T00:56:43;15.90;99.90
13898;DHT22;7019;50.766;4.474;2022-07-30T00:59:10;15.90;99.90
13898;DHT22;7019;50.766;4.474;2022-07-30T01:01:39;15.90;99.90
13898;DHT22;7019;50.766;4.474;2022-07-30T01:04:06;15.80;99.90
13898;DHT22;7019;50.766;4.474;2022-07-30T01:06:36;15.80;99.90
13898;DHT22;7019;50.766;4.474;2022-07-30T01:09:04;15.80;99.90
13898;DHT22;7019;50.766;4.474;2022-07-30T01:11:35;15.70;99.90
13898;DHT22;7019;50.766;4.474;2022-07-30T01:14:03;15.70;99.90
13898;DHT22;7019;50.766;4.474;2022-07-30T01:16:31;15.60;99.90
13898;DHT22;7019;50.766;4.474;2022-07-30T01:18:59;15.60;99.90
13898;DHT22;7019;50.766;4.474;2022-07-30T01:21:50;15.60;99.90
13898;DHT22;7019;50.766;4.474;2022-07-30T01:24:26;15.50;99.90
13898;DHT22;7019;50.766;4.474;2022-07-30T01:26:56;15.50;99.90
13898;DHT22;7019;50.766;4.474;2022-07-30T01:29:24;15.50;99.90
13898;DHT22;7019;50.766;4.474;2022-07-30T01:31:55;15.40;99.90
13898;DHT22;7019;50.766;4.474;2022-07-30T01:34:26;15.40;99.90
13898;DHT22;7019;50.766;4.474;2022-07-30T01:36:55;15.40;99.90
13898;DHT22;7019;50.766;4.474;2022-07-30T01:39:25;15.30;99.90
13898;DHT22;7019;50.766;4.474;2022-07-30T01:41:55;15.30;99.90
13898;DHT22;7019;50.766;4.474;2022-07-30T01:44:24;15.20;99.90
13898;DHT22;7019;50.766;4.474;2022-07-30T01:46:53;15.20;99.90
13898;DHT22;7019;50.766;4.474;2022-07-30T01:49:21;15.30;99.90
13898;DHT22;7019;50.766;4.474;2022-07-30T01:51:50;15.20;99.90
13898;DHT22;7019;50.766;4.474;2022-07-30T01:54:19;15.20;99.90
13898;DHT22;7019;50.766;4.474;2022-07-30T01:56:47;15.20;99.90
13898;DHT22;7019;50.766;4.474;2022-07-30T01:59:19;15.10;99.90
13898;DHT22;7019;50.766;4.474;2022-07-30T02:01:46;15.10;99.90
13898;DHT22;7019;50.766;4.474;2022-07-30T02:04:13;15.00;99.90
13898;DHT22;7019;50.766;4.474;2022-07-30T02:06:44;15.00;99.90
13898;DHT22;7019;50.766;4.474;2022-07-30T02:09:14;15.00;99.90
13898;DHT22;7019;50.766;4.474;2022-07-30T02:11:46;15.00;99.90
13898;DHT22;7019;50.766;4.474;2022-07-30T02:14:39;14.90;99.90
13898;DHT22;7019;50.766;4.474;2022-07-30T02:17:08;14.90;99.90
13898;DHT22;7019;50.766;4.474;2022-07-30T02:19:39;14.90;99.90
13898;DHT22;7019;50.766;4.474;2022-07-30T02:22:12;14.90;99.90
13898;DHT22;7019;50.766;4.474;2022-07-30T02:24:42;14.90;99.90
13898;DHT22;7019;50.766;4.474;2022-07-30T02:27:13;14.80;99.90
13898;DHT22;7019;50.766;4.474;2022-07-30T02:29:43;14.90;99.90
13898;DHT22;7019;50.766;4.474;2022-07-30T02:32:15;14.80;99.90
13898;DHT22;7019;50.766;4.474;2022-07-30T02:34:44;14.80;99.90
13898;DHT22;7019;50.766;4.474;2022-07-30T02:37:14;14.80;99.90
13898;DHT22;7019;50.766;4.474;2022-07-30T02:39:42;14.80;99.90
13898;DHT22;7019;50.766;4.474;2022-07-30T02:42:10;14.80;99.90
13898;DHT22;7019;50.766;4.474;2022-07-30T02:44:43;14.90;99.90
13898;DHT22;7019;50.766;4.474;2022-07-30T02:47:12;14.90;99.90
13898;DHT22;7019;50.766;4.474;2022-07-30T02:49:42;14.90;99.90
13898;DHT22;7019;50.766;4.474;2022-07-30T02:52:11;14.90;99.90
13898;DHT22;7019;50.766;4.474;2022-07-30T02:54:41;14.90;99.90
13898;DHT22;7019;50.766;4.474;2022-07-30T02:57:09;14.90;99.90
13898;DHT22;7019;50.766;4.474;2022-07-30T02:59:39;15.00;99.90
13898;DHT22;7019;50.766;4.474;2022-07-30T03:02:09;14.90;99.90
13898;DHT22;7019;50.766;4.474;2022-07-30T03:04:38;14.90;99.90
13898;DHT22;7019;50.766;4.474;2022-07-30T03:07:06;14.80;99.90
13898;DHT22;7019;50.766;4.474;2022-07-30T03:09:35;14.80;99.90
13898;DHT22;7019;50.766;4.474;2022-07-30T03:12:03;14.80;99.90
13898;DHT22;7019;50.766;4.474;2022-07-30T03:14:31;14.80;99.90
13898;DHT22;7019;50.766;4.474;2022-07-30T03:16:59;14.70;99.90
13898;DHT22;7019;50.766;4.474;2022-07-30T03:19:32;14.70;99.90
13898;DHT22;7019;50.766;4.474;2022-07-30T03:22:03;14.70;99.90
13898;DHT22;7019;50.766;4.474;2022-07-30T03:24:33;14.60;99.90
13898;DHT22;7019;50.766;4.474;2022-07-30T03:27:03;14.60;99.90
13898;DHT22;7019;50.766;4.474;2022-07-30T03:29:30;14.70;99.90
13898;DHT22;7019;50.766;4.474;2022-07-30T03:31:58;14.60;99.90
13898;DHT22;7019;50.766;4.474;2022-07-30T03:34:29;14.60;99.90
13898;DHT22;7019;50.766;4.474;2022-07-30T03:36:57;14.60;99.90
13898;DHT22;7019;50.766;4.474;2022-07-30T03:39:25;14.60;99.90
13898;DHT22;7019;50.766;4.474;2022-07-30T03:41:54;14.60;99.90
13898;DHT22;7019;50.766;4.474;2022-07-30T03:44:22;14.50;99.90
13898;DHT22;7019;50.766;4.474;2022-07-30T03:46:52;14.50;99.90
13898;DHT22;7019;50.766;4.474;2022-07-30T03:49:20;14.50;99.90
13898;DHT22;7019;50.766;4.474;2022-07-30T03:51:51;14.50;99.90
13898;DHT22;7019;50.766;4.474;2022-07-30T03:54:19;14.50;99.90
13898;DHT22;7019;50.766;4.474;2022-07-30T03:56:47;14.50;99.90
13898;DHT22;7019;50.766;4.474;2022-07-30T03:59:14;14.50;99.90
13898;DHT22;7019;50.766;4.474;2022-07-30T04:01:41;14.50;99.90
13898;DHT22;7019;50.766;4.474;2022-07-30T04:04:09;14.50;99.90
13898;DHT22;7019;50.766;4.474;2022-07-30T04:06:37;14.50;99.90
13898;DHT22;7019;50.766;4.474;2022-07-30T04:09:07;14.50;99.90
13898;DHT22;7019;50.766;4.474;2022-07-30T04:11:34;14.50;99.90
13898;DHT22;7019;50.766;4.474;2022-07-30T04:14:02;14.50;99.90
13898;DHT22;7019;50.766;4.474;2022-07-30T04:16:36;14.50;99.90
13898;DHT22;7019;50.766;4.474;2022-07-30T04:19:09;14.50;99.90
13898;DHT22;7019;50.766;4.474;2022-07-30T04:21:39;14.50;99.90
13898;DHT22;7019;50.766;4.474;2022-07-30T04:24:09;14.60;99.90
13898;DHT22;7019;50.766;4.474;2022-07-30T04:26:37;14.50;99.90
13898;DHT22;7019;50.766;4.474;2022-07-30T04:29:07;14.50;99.90
13898;DHT22;7019;50.766;4.474;2022-07-30T04:31:35;14.60;99.90
13898;DHT22;7019;50.766;4.474;2022-07-30T04:34:03;14.60;99.90
13898;DHT22;7019;50.766;4.474;2022-07-30T04:36:31;14.60;99.90
13898;DHT22;7019;50.766;4.474;2022-07-30T04:38:59;14.60;99.90
13898;DHT22;7019;50.766;4.474;2022-07-30T04:41:28;14.60;99.90
13898;DHT22;7019;50.766;4.474;2022-07-30T04:43:55;14.60;99.90
13898;DHT22;7019;50.766;4.474;2022-07-30T04:46:22;14.70;99.90
13898;DHT22;7019;50.766;4.474;2022-07-30T04:48:49;14.80;99.90
13898;DHT22;7019;50.766;4.474;2022-07-30T04:51:21;14.80;99.90
13898;DHT22;7019;50.766;4.474;2022-07-30T04:53:50;14.80;99.90
13898;DHT22;7019;50.766;4.474;2022-07-30T04:56:20;14.90;99.90
13898;DHT22;7019;50.766;4.474;2022-07-30T04:58:50;15.00;99.90
13898;DHT22;7019;50.766;4.474;2022-07-30T05:01:21;15.00;99.90
13898;DHT22;7019;50.766;4.474;2022-07-30T05:03:50;15.10;99.90
13898;DHT22;7019;50.766;4.474;2022-07-30T05:06:19;15.20;99.90
13898;DHT22;7019;50.766;4.474;2022-07-30T05:08:46;15.30;99.90
13898;DHT22;7019;50.766;4.474;2022-07-30T05:11:13;15.40;99.90
13898;DHT22;7019;50.766;4.474;2022-07-30T05:13:41;15.50;99.90
13898;DHT22;7019;50.766;4.474;2022-07-30T05:16:10;15.60;99.90
13898;DHT22;7019;50.766;4.474;2022-07-30T05:18:37;15.70;99.90
13898;DHT22;7019;50.766;4.474;2022-07-30T05:21:04;15.80;99.90
13898;DHT22;7019;50.766;4.474;2022-07-30T05:23:32;15.80;99.90
13898;DHT22;7019;50.766;4.474;2022-07-30T05:25:59;15.90;99.90
13898;DHT22;7019;50.766;4.474;2022-07-30T05:28:26;16.00;99.90
13898;DHT22;7019;50.766;4.474;2022-07-30T05:30:54;16.10;99.90
13898;DHT22;7019;50.766;4.474;2022-07-30T05:33:22;16.00;99.90
13898;DHT22;7019;50.766;4.474;2022-07-30T05:35:50;16.00;99.90
13898;DHT22;7019;50.766;4.474;2022-07-30T05:38:17;16.10;99.90
13898;DHT22;7019;50.766;4.474;2022-07-30T05:40:45;16.10;99.90
13898;DHT22;7019;50.766;4.474;2022-07-30T05:43:12;16.20;99.90
13898;DHT22;7019;50.766;4.474;2022-07-30T05:45:39;16.20;99.90
13898;DHT22;7019;50.766;4.474;2022-07-30T05:48:06;16.30;99.90
13898;DHT22;7019;50.766;4.474;2022-07-30T05:50:35;16.30;99.90
13898;DHT22;7019;50.766;4.474;2022-07-30T05:53:02;16.30;99.90
13898;DHT22;7019;50.766;4.474;2022-07-30T05:55:29;16.20;99.90
13898;DHT22;7019;50.766;4.474;2022-07-30T05:57:56;16.20;99.90
13898;DHT22;7019;50.766;4.474;2022-07-30T06:00:23;16.20;99.90
13898;DHT22;7019;50.766;4.474;2022-07-30T06:02:50;16.10;99.90
13898;DHT22;7019;50.766;4.474;2022-07-30T06:05:17;16.20;99.90
13898;DHT22;7019;50.766;4.474;2022-07-30T06:07:46;16.30;99.90
13898;DHT22;7019;50.766;4.474;2022-07-30T06:10:13;16.40;99.90
13898;DHT22;7019;50.766;4.474;2022-07-30T06:12:40;16.40;99.90
13898;DHT22;7019;50.766;4.474;2022-07-30T06:15:08;16.60;99.90
13898;DHT22;7019;50.766;4.474;2022-07-30T06:17:41;16.70;99.90
13898;DHT22;7019;50.766;4.474;2022-07-30T06:20:09;16.90;99.90
13898;DHT22;7019;50.766;4.474;2022-07-30T06:22:37;17.20;99.90
13898;DHT22;7019;50.766;4.474;2022-07-30T06:25:06;17.50;99.90
13898;DHT22;7019;50.766;4.474;2022-07-30T06:27:33;17.80;99.90
13898;DHT22;7019;50.766;4.474;2022-07-30T06:30:02;18.40;99.90
13898;DHT22;7019;50.766;4.474;2022-07-30T06:32:29;19.20;99.90
13898;DHT22;7019;50.766;4.474;2022-07-30T06:34:56;20.10;99.90
13898;DHT22;7019;50.766;4.474;2022-07-30T06:37:23;21.10;99.90
13898;DHT22;7019;50.766;4.474;2022-07-30T06:39:50;21.70;99.90
13898;DHT22;7019;50.766;4.474;2022-07-30T06:42:19;22.20;99.90
13898;DHT22;7019;50.766;4.474;2022-07-30T06:44:46;22.70;99.90
13898;DHT22;7019;50.766;4.474;2022-07-30T06:47:13;22.90;99.90
13898;DHT22;7019;50.766;4.474;2022-07-30T06:49:45;23.20;99.90
13898;DHT22;7019;50.766;4.474;2022-07-30T06:52:12;23.70;99.90
13898;DHT22;7019;50.766;4.474;2022-07-30T06:54:39;23.80;99.90
13898;DHT22;7019;50.766;4.474;2022-07-30T06:57:06;23.80;99.90
13898;DHT22;7019;50.766;4.474;2022-07-30T06:59:34;23.90;99.90
13898;DHT22;7019;50.766;4.474;2022-07-30T07:02:01;24.20;99.90
13898;DHT22;7019;50.766;4.474;2022-07-30T07:04:28;24.40;99.90
13898;DHT22;7019;50.766;4.474;2022-07-30T07:06:56;24.70;99.90
13898;DHT22;7019;50.766;4.474;2022-07-30T07:09:24;24.90;99.90
13898;DHT22;7019;50.766;4.474;2022-07-30T07:11:51;24.80;99.90
13898;DHT22;7019;50.766;4.474;2022-07-30T07:14:18;25.00;99.90
13898;DHT22;7019;50.766;4.474;2022-07-30T07:16:47;25.00;99.90
13898;DHT22;7019;50.766;4.474;2022-07-30T07:19:14;25.10;99.90
13898;DHT22;7019;50.766;4.474;2022-07-30T07:21:41;25.40;99.90
13898;DHT22;7019;50.766;4.474;2022-07-30T07:24:08;25.50;99.50
13898;DHT22;7019;50.766;4.474;2022-07-30T07:26:35;25.60;99.60
13898;DHT22;7019;50.766;4.474;2022-07-30T07:29:02;25.90;98.20
13898;DHT22;7019;50.766;4.474;2022-07-30T07:31:30;26.00;98.10
13898;DHT22;7019;50.766;4.474;2022-07-30T07:33:58;26.10;97.50
13898;DHT22;7019;50.766;4.474;2022-07-30T07:36:25;26.40;97.90
13898;DHT22;7019;50.766;4.474;2022-07-30T07:38:53;26.50;97.00
13898;DHT22;7019;50.766;4.474;2022-07-30T07:41:20;26.60;97.50
13898;DHT22;7019;50.766;4.474;2022-07-30T07:43:47;26.80;97.20
13898;DHT22;7019;50.766;4.474;2022-07-30T07:46:14;26.80;96.50
13898;DHT22;7019;50.766;4.474;2022-07-30T07:48:42;27.00;96.70
13898;DHT22;7019;50.766;4.474;2022-07-30T07:51:10;27.30;96.10
13898;DHT22;7019;50.766;4.474;2022-07-30T07:53:37;27.30;95.20
13898;DHT22;7019;50.766;4.474;2022-07-30T07:56:04;27.30;95.60
13898;DHT22;7019;50.766;4.474;2022-07-30T07:58:33;27.60;95.80
13898;DHT22;7019;50.766;4.474;2022-07-30T08:01:01;27.60;94.70
13898;DHT22;7019;50.766;4.474;2022-07-30T08:03:28;27.60;94.60
13898;DHT22;7019;50.766;4.474;2022-07-30T08:05:55;27.70;94.40
13898;DHT22;7019;50.766;4.474;2022-07-30T08:08:23;27.60;94.70
13898;DHT22;7019;50.766;4.474;2022-07-30T08:10:50;27.60;94.10
13898;DHT22;7019;50.766;4.474;2022-07-30T08:13:17;28.00;94.70
13898;DHT22;7019;50.766;4.474;2022-07-30T08:15:44;27.90;94.20
13898;DHT22;7019;50.766;4.474;2022-07-30T08:18:11;28.60;93.80
13898;DHT22;7019;50.766;4.474;2022-07-30T08:20:38;29.10;92.50
13898;DHT22;7019;50.766;4.474;2022-07-30T08:23:06;29.40;92.50
13898;DHT22;7019;50.766;4.474;2022-07-30T08:25:34;29.70;91.90
13898;DHT22;7019;50.766;4.474;2022-07-30T08:28:01;29.40;91.40
13898;DHT22;7019;50.766;4.474;2022-07-30T08:30:29;29.60;92.10
13898;DHT22;7019;50.766;4.474;2022-07-30T08:32:56;29.70;91.90
13898;DHT22;7019;50.766;4.474;2022-07-30T08:35:23;29.90;90.00
13898;DHT22;7019;50.766;4.474;2022-07-30T08:37:50;29.60;91.40
13898;DHT22;7019;50.766;4.474;2022-07-30T08:40:18;29.60;91.40
13898;DHT22;7019;50.766;4.474;2022-07-30T08:42:47;30.10;90.70
13898;DHT22;7019;50.766;4.474;2022-07-30T08:45:14;30.10;90.70
13898;DHT22;7019;50.766;4.474;2022-07-30T08:47:45;30.30;87.60
13898;DHT22;7019;50.766;4.474;2022-07-30T08:50:12;30.40;89.00
13898;DHT22;7019;50.766;4.474;2022-07-30T08:52:40;31.00;89.10
13898;DHT22;7019;50.766;4.474;2022-07-30T08:55:08;31.00;85.00
13898;DHT22;7019;50.766;4.474;2022-07-30T08:57:36;30.60;83.40
13898;DHT22;7019;50.766;4.474;2022-07-30T09:00:06;29.90;87.00
13898;DHT22;7019;50.766;4.474;2022-07-30T09:02:34;29.40;89.50
13898;DHT22;7019;50.766;4.474;2022-07-30T09:05:01;29.30;90.40
13898;DHT22;7019;50.766;4.474;2022-07-30T09:07:28;29.70;89.40
13898;DHT22;7019;50.766;4.474;2022-07-30T09:09:58;30.00;86.40
13898;DHT22;7019;50.766;4.474;2022-07-30T09:12:35;29.60;86.00
13898;DHT22;7019;50.766;4.474;2022-07-30T09:15:09;29.40;90.80
13898;DHT22;7019;50.766;4.474;2022-07-30T09:17:53;30.00;88.00
13898;DHT22;7019;50.766;4.474;2022-07-30T09:20:22;30.70;86.70
13898;DHT22;7019;50.766;4.474;2022-07-30T09:22:50;31.10;84.20
13898;DHT22;7019;50.766;4.474;2022-07-30T09:25:35;30.40;84.50
13898;DHT22;7019;50.766;4.474;2022-07-30T09:28:03;29.90;86.30
13898;DHT22;7019;50.766;4.474;2022-07-30T09:30:44;29.80;87.50
13898;DHT22;7019;50.766;4.474;2022-07-30T09:33:13;29.60;87.00
13898;DHT22;7019;50.766;4.474;2022-07-30T09:35:41;30.00;87.10
13898;DHT22;7019;50.766;4.474;2022-07-30T09:38:08;30.80;89.00
13898;DHT22;7019;50.766;4.474;2022-07-30T09:40:36;31.20;86.60
13898;DHT22;7019;50.766;4.474;2022-07-30T09:43:07;31.50;86.00
13898;DHT22;7019;50.766;4.474;2022-07-30T09:45:35;31.50;87.10
13898;DHT22;7019;50.766;4.474;2022-07-30T09:48:19;31.10;88.00
13898;DHT22;7019;50.766;4.474;2022-07-30T09:50:47;30.40;86.50
13898;DHT22;7019;50.766;4.474;2022-07-30T09:53:14;30.20;89.50
13898;DHT22;7019;50.766;4.474;2022-07-30T09:55:41;29.90;89.90
13898;DHT22;7019;50.766;4.474;2022-07-30T09:58:10;29.60;90.70
13898;DHT22;7019;50.766;4.474;2022-07-30T10:00:38;29.30;91.10
13898;DHT22;7019;50.766;4.474;2022-07-30T10:03:16;29.20;92.30
13898;DHT22;7019;50.766;4.474;2022-07-30T10:05:51;29.00;91.40
13898;DHT22;7019;50.766;4.474;2022-07-30T10:08:18;29.00;92.10
13898;DHT22;7019;50.766;4.474;2022-07-30T10:10:46;29.20;91.80
13898;DHT22;7019;50.766;4.474;2022-07-30T10:13:15;29.80;92.60
13898;DHT22;7019;50.766;4.474;2022-07-30T10:15:44;30.20;91.10
13898;DHT22;7019;50.766;4.474;2022-07-30T10:18:11;30.60;90.40
13898;DHT22;7019;50.766;4.474;2022-07-30T10:20:42;31.10;89.10
13898;DHT22;7019;50.766;4.474;2022-07-30T10:23:09;31.50;90.00
13898;DHT22;7019;50.766;4.474;2022-07-30T10:25:37;31.80;87.70
13898;DHT22;7019;50.766;4.474;2022-07-30T10:28:04;31.90;89.10
13898;DHT22;7019;50.766;4.474;2022-07-30T10:30:32;31.60;86.80
13898;DHT22;7019;50.766;4.474;2022-07-30T10:33:00;30.70;85.70
13898;DHT22;7019;50.766;4.474;2022-07-30T10:35:27;29.80;87.10
13898;DHT22;7019;50.766;4.474;2022-07-30T10:37:57;29.30;88.30
13898;DHT22;7019;50.766;4.474;2022-07-30T10:40:29;28.90;89.70
13898;DHT22;7019;50.766;4.474;2022-07-30T10:46:05;29.60;91.00
13898;DHT22;7019;50.766;4.474;2022-07-30T10:48:34;29.30;89.50
13898;DHT22;7019;50.766;4.474;2022-07-30T10:51:03;29.10;90.10
13898;DHT22;7019;50.766;4.474;2022-07-30T10:53:36;29.20;90.70
13898;DHT22;7019;50.766;4.474;2022-07-30T10:56:14;28.90;90.50
13898;DHT22;7019;50.766;4.474;2022-07-30T10:59:10;29.00;91.60
13898;DHT22;7019;50.766;4.474;2022-07-30T11:02:07;29.40;91.20
13898;DHT22;7019;50.766;4.474;2022-07-30T11:04:35;29.40;89.90
13898;DHT22;7019;50.766;4.474;2022-07-30T11:07:28;29.40;91.40
13898;DHT22;7019;50.766;4.474;2022-07-30T11:09:59;29.80;90.20
13898;DHT22;7019;50.766;4.474;2022-07-30T11:12:51;29.80;90.90
13898;DHT22;7019;50.766;4.474;2022-07-30T11:15:19;29.20;90.80
13898;DHT22;7019;50.766;4.474;2022-07-30T11:18:06;28.40;90.40
13898;DHT22;7019;50.766;4.474;2022-07-30T11:20:34;27.60;91.70
13898;DHT22;7019;50.766;4.474;2022-07-30T11:25:55;28.10;91.80
13898;DHT22;7019;50.766;4.474;2022-07-30T11:28:33;27.80;90.90
13898;DHT22;7019;50.766;4.474;2022-07-30T11:31:02;27.80;92.00
13898;DHT22;7019;50.766;4.474;2022-07-30T11:33:29;27.70;92.70
13898;DHT22;7019;50.766;4.474;2022-07-30T11:36:10;27.30;92.40
13898;DHT22;7019;50.766;4.474;2022-07-30T11:38:55;27.50;95.00
13898;DHT22;7019;50.766;4.474;2022-07-30T11:41:24;27.70;93.20
13898;DHT22;7019;50.766;4.474;2022-07-30T11:44:26;28.30;92.90
13898;DHT22;7019;50.766;4.474;2022-07-30T11:46:53;28.70;92.20
13898;DHT22;7019;50.766;4.474;2022-07-30T11:49:20;28.90;90.20
13898;DHT22;7019;50.766;4.474;2022-07-30T11:51:48;29.30;90.00
13898;DHT22;7019;50.766;4.474;2022-07-30T11:54:16;29.60;89.20
13898;DHT22;7019;50.766;4.474;2022-07-30T11:56:53;29.60;89.30
13898;DHT22;7019;50.766;4.474;2022-07-30T11:59:22;30.00;90.00
13898;DHT22;7019;50.766;4.474;2022-07-30T12:01:50;29.90;90.50
13898;DHT22;7019;50.766;4.474;2022-07-30T12:04:18;30.20;91.40
13898;DHT22;7019;50.766;4.474;2022-07-30T12:06:46;30.30;89.80
13898;DHT22;7019;50.766;4.474;2022-07-30T12:09:21;30.30;90.80
13898;DHT22;7019;50.766;4.474;2022-07-30T12:11:50;30.40;88.80
13898;DHT22;7019;50.766;4.474;2022-07-30T12:14:17;30.60;88.40
13898;DHT22;7019;50.766;4.474;2022-07-30T12:16:51;30.90;89.80
13898;DHT22;7019;50.766;4.474;2022-07-30T12:19:19;31.40;87.30
13898;DHT22;7019;50.766;4.474;2022-07-30T12:21:46;31.40;86.10
13898;DHT22;7019;50.766;4.474;2022-07-30T12:24:13;30.60;84.30
13898;DHT22;7019;50.766;4.474;2022-07-30T12:26:40;30.70;88.40
13898;DHT22;7019;50.766;4.474;2022-07-30T12:29:09;30.50;85.40
13898;DHT22;7019;50.766;4.474;2022-07-30T12:31:38;30.30;90.50
13898;DHT22;7019;50.766;4.474;2022-07-30T12:34:18;30.20;89.50
13898;DHT22;7019;50.766;4.474;2022-07-30T12:36:46;30.10;89.00
13898;DHT22;7019;50.766;4.474;2022-07-30T12:39:18;29.80;88.10
13898;DHT22;7019;50.766;4.474;2022-07-30T12:41:48;29.40;86.90
13898;DHT22;7019;50.766;4.474;2022-07-30T12:44:36;29.30;89.20
13898;DHT22;7019;50.766;4.474;2022-07-30T12:47:09;29.60;88.60
13898;DHT22;7019;50.766;4.474;2022-07-30T12:49:43;29.70;85.90
13898;DHT22;7019;50.766;4.474;2022-07-30T12:52:20;29.70;88.00
13898;DHT22;7019;50.766;4.474;2022-07-30T12:54:56;29.60;85.10
13898;DHT22;7019;50.766;4.474;2022-07-30T12:57:23;29.80;89.50
13898;DHT22;7019;50.766;4.474;2022-07-30T13:00:02;29.90;84.50
13898;DHT22;7019;50.766;4.474;2022-07-30T13:02:32;30.00;87.70
13898;DHT22;7019;50.766;4.474;2022-07-30T13:04:59;30.10;85.00
13898;DHT22;7019;50.766;4.474;2022-07-30T13:07:26;30.30;87.10
13898;DHT22;7019;50.766;4.474;2022-07-30T13:10:07;30.40;90.00
13898;DHT22;7019;50.766;4.474;2022-07-30T13:12:35;30.30;85.80
13898;DHT22;7019;50.766;4.474;2022-07-30T13:15:04;30.60;84.60
13898;DHT22;7019;50.766;4.474;2022-07-30T13:17:31;30.70;86.20
13898;DHT22;7019;50.766;4.474;2022-07-30T13:19:59;30.80;90.20
13898;DHT22;7019;50.766;4.474;2022-07-30T13:22:26;30.90;83.20
13898;DHT22;7019;50.766;4.474;2022-07-30T13:24:53;30.90;85.30
13898;DHT22;7019;50.766;4.474;2022-07-30T13:27:20;30.90;85.60
13898;DHT22;7019;50.766;4.474;2022-07-30T13:29:47;30.70;82.10
13898;DHT22;7019;50.766;4.474;2022-07-30T13:32:16;30.30;88.00
13898;DHT22;7019;50.766;4.474;2022-07-30T13:34:43;30.00;87.90
13898;DHT22;7019;50.766;4.474;2022-07-30T13:37:10;29.80;86.50
13898;DHT22;7019;50.766;4.474;2022-07-30T13:39:37;29.70;85.80
13898;DHT22;7019;50.766;4.474;2022-07-30T13:42:04;29.50;87.50
13898;DHT22;7019;50.766;4.474;2022-07-30T13:44:32;29.40;87.70
13898;DHT22;7019;50.766;4.474;2022-07-30T13:46:59;29.30;85.50
13898;DHT22;7019;50.766;4.474;2022-07-30T13:49:27;29.30;87.60
13898;DHT22;7019;50.766;4.474;2022-07-30T13:51:54;29.40;88.60
13898;DHT22;7019;50.766;4.474;2022-07-30T13:54:21;29.60;88.00
13898;DHT22;7019;50.766;4.474;2022-07-30T13:56:48;30.00;88.20
13898;DHT22;7019;50.766;4.474;2022-07-30T13:59:15;30.30;89.40
13898;DHT22;7019;50.766;4.474;2022-07-30T14:01:42;30.60;86.80
13898;DHT22;7019;50.766;4.474;2022-07-30T14:04:09;30.90;84.80
13898;DHT22;7019;50.766;4.474;2022-07-30T14:06:38;30.60;85.10
13898;DHT22;7019;50.766;4.474;2022-07-30T14:09:05;30.80;85.80
13898;DHT22;7019;50.766;4.474;2022-07-30T14:11:32;30.90;84.00
13898;DHT22;7019;50.766;4.474;2022-07-30T14:13:59;30.70;85.20
13898;DHT22;7019;50.766;4.474;2022-07-30T14:16:26;31.00;86.10
13898;DHT22;7019;50.766;4.474;2022-07-30T14:18:53;30.80;87.00
13898;DHT22;7019;50.766;4.474;2022-07-30T14:21:22;30.70;86.00
13898;DHT22;7019;50.766;4.474;2022-07-30T14:23:50;30.40;86.70
13898;DHT22;7019;50.766;4.474;2022-07-30T14:26:17;30.30;85.60
13898;DHT22;7019;50.766;4.474;2022-07-30T14:28:44;30.30;86.50
13898;DHT22;7019;50.766;4.474;2022-07-30T14:31:11;30.30;86.10
13898;DHT22;7019;50.766;4.474;2022-07-30T14:33:38;30.10;87.00
13898;DHT22;7019;50.766;4.474;2022-07-30T14:36:06;29.80;86.40
13898;DHT22;7019;50.766;4.474;2022-07-30T14:38:33;29.40;86.50
13898;DHT22;7019;50.766;4.474;2022-07-30T14:41:01;29.40;87.10
13898;DHT22;7019;50.766;4.474;2022-07-30T14:43:28;29.40;88.00
13898;DHT22;7019;50.766;4.474;2022-07-30T14:45:55;29.40;89.60
13898;DHT22;7019;50.766;4.474;2022-07-30T14:48:22;29.20;88.80
13898;DHT22;7019;50.766;4.474;2022-07-30T14:50:50;29.30;89.10
13898;DHT22;7019;50.766;4.474;2022-07-30T14:53:17;29.30;88.60
13898;DHT22;7019;50.766;4.474;2022-07-30T14:55:44;29.50;88.60
13898;DHT22;7019;50.766;4.474;2022-07-30T14:58:13;29.70;85.90
13898;DHT22;7019;50.766;4.474;2022-07-30T15:00:40;29.70;86.40
13898;DHT22;7019;50.766;4.474;2022-07-30T15:03:07;29.50;86.90
13898;DHT22;7019;50.766;4.474;2022-07-30T15:05:34;29.30;87.70
13898;DHT22;7019;50.766;4.474;2022-07-30T15:08:01;28.90;88.40
13898;DHT22;7019;50.766;4.474;2022-07-30T15:10:28;28.90;89.70
13898;DHT22;7019;50.766;4.474;2022-07-30T15:12:56;29.00;88.40
13898;DHT22;7019;50.766;4.474;2022-07-30T15:15:24;28.90;90.80
13898;DHT22;7019;50.766;4.474;2022-07-30T15:17:51;29.00;88.70
13898;DHT22;7019;50.766;4.474;2022-07-30T15:20:19;28.90;89.30
13898;DHT22;7019;50.766;4.474;2022-07-30T15:22:46;28.70;90.90
13898;DHT22;7019;50.766;4.474;2022-07-30T15:25:13;28.50;90.80
13898;DHT22;7019;50.766;4.474;2022-07-30T15:27:40;28.30;90.00
13898;DHT22;7019;50.766;4.474;2022-07-30T15:30:07;28.20;90.00
13898;DHT22;7019;50.766;4.474;2022-07-30T15:32:36;28.30;90.10
13898;DHT22;7019;50.766;4.474;2022-07-30T15:35:03;28.30;89.90
13898;DHT22;7019;50.766;4.474;2022-07-30T15:37:30;28.30;90.90
13898;DHT22;7019;50.766;4.474;2022-07-30T15:39:58;28.50;91.40
13898;DHT22;7019;50.766;4.474;2022-07-30T15:42:25;28.60;91.30
13898;DHT22;7019;50.766;4.474;2022-07-30T15:44:54;28.60;90.80
13898;DHT22;7019;50.766;4.474;2022-07-30T15:47:21;28.60;90.60
13898;DHT22;7019;50.766;4.474;2022-07-30T15:49:50;28.50;89.70
13898;DHT22;7019;50.766;4.474;2022-07-30T15:52:17;28.60;90.60
13898;DHT22;7019;50.766;4.474;2022-07-30T15:54:44;28.50;90.40
13898;DHT22;7019;50.766;4.474;2022-07-30T15:57:11;28.70;90.90
13898;DHT22;7019;50.766;4.474;2022-07-30T15:59:38;28.50;88.80
13898;DHT22;7019;50.766;4.474;2022-07-30T16:02:05;28.30;90.10
13898;DHT22;7019;50.766;4.474;2022-07-30T16:04:32;28.00;91.80